Eva, Alabama
Current Conditions -  °F | °C
As of 9:15 AM on Friday 19 Dec 2014 (Local Time) from KCMD Reporting Station
Haze Haze  
Wind Chill: 32°   Ceiling: 3300
Heat Index: 36°   Visibility: 5mi
Dew Point: 33°   Wind: 5mph
Humidity: 90%   Direction: 360°N
Pressure: 30.24"   Gusts: NA
Location:  34.33°N, 86.76°W
Report Text: KCMD 191515Z AUTO 36004KT 5SM BR OVC033 02/01 A3024 RMK AO2 T00210006
Loading
Personal Weather Stations






























Interactive Weather Map New forecast layout! Learn more

10-Day Weather Forecast

Advertisements
Track Severe Weather on mobile